Time;durP1;ratioP1;P1;durP2;ratioP2;P2;SDS_P1;SDS_P2;PMS_P1;PMS_P2;Temp;Humidity;BMP_temperature;BMP_pressure;BME280_temperature;BME280_humidity;BME280_pressure;Samples;Min_cycle;Max_cycle;Signal;HPM_P1;HPM_P2
2022/01/20 00:00:00;;;;;;;23.87;10.43;;;;;;;-11.95;100.00;100101.30;1701556;83;21004;-74
2022/01/20 00:02:27;;;;;;;29.47;12.40;;;;;;;-11.98;100.00;100098.73;1701692;83;21536;-76
2022/01/20 00:05:11;;;;;;;24.80;11.17;;;;;;;-12.02;100.00;100102.30;1726799;83;20988;-75
2022/01/20 00:08:04;;;;;;;24.30;10.17;;;;;;;-12.07;100.00;100104.97;1706152;83;21000;-75
2022/01/20 00:26:56;;;;;;;28.07;11.13;;;;;;;-12.26;100.00;100079.66;1726614;83;21086;-75
2022/01/20 00:29:28;;;;;;;25.50;11.07;;;;;;;-12.27;100.00;100080.57;1699559;84;21063;-76
2022/01/20 00:32:11;;;;;;;26.40;12.03;;;;;;;-12.31;100.00;100081.48;1710672;82;21070;-75
2022/01/20 00:37:22;;;;;;;28.90;12.27;;;;;;;-12.35;100.00;100078.53;1575930;90;21056;-77
2022/01/20 00:39:50;;;;;;;41.83;16.63;;;;;;;-12.34;100.00;100068.95;1631802;87;21076;-75
2022/01/20 00:42:17;;;;;;;37.13;13.77;;;;;;;-12.32;100.00;100077.18;1631479;88;21118;-75
2022/01/20 00:44:45;;;;;;;35.47;14.97;;;;;;;-12.30;100.00;100075.41;1605586;88;21050;-76
2022/01/20 00:47:12;;;;;;;39.07;15.60;;;;;;;-12.29;100.00;100081.47;1631755;88;21564;-75
2022/01/20 00:49:40;;;;;;;36.53;14.80;;;;;;;-12.30;100.00;100083.22;1631466;88;21094;-74
2022/01/20 00:52:08;;;;;;;27.00;11.93;;;;;;;-12.29;100.00;100081.02;1631518;88;21094;-75
2022/01/20 00:54:35;;;;;;;25.70;11.77;;;;;;;-12.30;100.00;100078.00;1631623;88;21587;-74
2022/01/20 00:57:05;;;;;;;23.73;11.83;;;;;;;-12.31;100.00;100081.94;1631668;88;21046;-75
2022/01/20 00:59:33;;;;;;;26.17;12.00;;;;;;;-12.32;100.00;100082.39;1631311;87;21039;-75
2022/01/20 01:02:02;;;;;;;24.33;11.53;;;;;;;-12.34;100.00;100075.47;1631610;88;21047;-75
2022/01/20 01:04:29;;;;;;;24.77;12.07;;;;;;;-12.36;100.00;100076.80;1631331;88;21617;-76
2022/01/20 01:09:23;;;;;;;25.60;11.77;;;;;;;-12.36;100.00;100065.06;1631609;88;21170;-76
2022/01/20 01:11:52;;;;;;;29.03;12.67;;;;;;;-12.38;100.00;100060.78;1657278;86;21064;-75
2022/01/20 01:14:21;;;;;;;27.50;11.53;;;;;;;-12.36;100.00;100060.31;1636177;87;21083;-74
2022/01/20 01:22:13;;;;;;;35.87;14.63;;;;;;;-12.34;100.00;100056.80;1713096;84;21028;-75
2022/01/20 01:24:31;;;;;;;32.63;15.03;;;;;;;-12.33;100.00;100058.50;1672539;85;21056;-75
2022/01/20 01:26:59;;;;;;;34.20;15.93;;;;;;;-12.33;100.00;100055.91;1649994;86;21102;-74
2022/01/20 01:29:51;;;;;;;38.50;17.93;;;;;;;-12.33;100.00;100036.36;1672286;85;21072;-74
2022/01/20 01:31:57;;;;;;;36.30;17.23;;;;;;;-12.32;100.00;100035.48;1653053;87;21071;-75
2022/01/20 01:34:28;;;;;;;40.50;18.60;;;;;;;-12.31;100.00;100019.39;1646989;85;20995;-75
2022/01/20 01:39:27;;;;;;;35.20;16.90;;;;;;;-12.30;100.00;100021.98;1683282;85;21049;-74
2022/01/20 01:41:56;;;;;;;27.53;14.40;;;;;;;-12.30;100.00;100021.13;1683043;85;21080;-75
2022/01/20 01:44:27;;;;;;;26.07;11.83;;;;;;;-12.29;100.00;100023.67;1683405;85;20983;-75
2022/01/20 01:46:58;;;;;;;22.97;11.57;;;;;;;-12.30;100.00;100023.28;1683102;85;21559;-75
2022/01/20 01:49:26;;;;;;;23.43;10.47;;;;;;;-12.29;100.00;100017.61;1683401;85;20999;-75
2022/01/20 01:51:53;;;;;;;21.43;10.10;;;;;;;-12.29;100.00;100027.58;1683550;85;21030;-75
2022/01/20 01:54:21;;;;;;;22.07;10.63;;;;;;;-12.30;100.00;100028.94;1683328;85;21030;-76
2022/01/20 01:56:49;;;;;;;25.67;11.67;;;;;;;-12.36;100.00;100031.19;1683481;85;21011;-75
2022/01/20 01:59:18;;;;;;;26.80;13.33;;;;;;;-12.40;100.00;100025.62;1686950;85;21030;-76
2022/01/20 02:01:56;;;;;;;29.33;13.30;;;;;;;-12.45;100.00;100033.97;1684033;85;21054;-75
2022/01/20 02:04:24;;;;;;;25.53;11.97;;;;;;;-12.51;100.00;100034.09;1683597;84;21046;-76
2022/01/20 02:07:32;;;;;;;27.57;12.83;;;;;;;-12.58;100.00;100026.81;1683862;85;21030;-75
2022/01/20 02:17:50;;;;;;;;;;;;;;;-12.61;100.00;100035.52;1686391;85;21023;-76
2022/01/20 02:17:56;;;;;;;22.67;10.57;;;;;;;-12.73;100.00;100024.00;1683703;85;21051;-77
2022/01/20 02:20:18;;;;;;;21.93;9.37;;;;;;;-12.74;100.00;100029.27;1667310;85;21578;-76
2022/01/20 02:22:47;;;;;;;22.47;10.13;;;;;;;-12.80;100.00;100036.71;1680789;85;21044;-76
2022/01/20 02:25:26;;;;;;;23.83;11.07;;;;;;;-12.83;100.00;100038.09;1661221;85;21023;-76
2022/01/20 02:27:54;;;;;;;21.60;9.43;;;;;;;-12.84;100.00;100035.90;1683598;85;21046;-76
2022/01/20 02:30:24;;;;;;;20.47;9.23;;;;;;;-12.85;100.00;100039.86;1683112;85;21073;-75
2022/01/20 02:33:00;;;;;;;21.30;8.93;;;;;;;-12.87;100.00;100037.27;1666380;86;21090;-76
2022/01/20 02:35:32;;;;;;;17.80;8.57;;;;;;;-12.87;100.00;100032.48;1662212;86;21064;-75
2022/01/20 02:38:08;;;;;;;19.53;7.93;;;;;;;-12.88;100.00;100029.03;1682637;85;21079;-76
2022/01/20 02:45:44;;;;;;;17.30;8.23;;;;;;;-12.86;100.00;100015.54;1675076;85;21029;-76
2022/01/20 02:48:13;;;;;;;19.00;8.17;;;;;;;-12.90;100.00;100013.03;1675003;86;21061;-75
2022/01/20 02:50:41;;;;;;;19.57;7.80;;;;;;;-12.91;100.00;100009.55;1674424;86;21009;-76
2022/01/20 02:53:10;;;;;;;18.27;8.23;;;;;;;-12.90;100.00;100002.62;1674802;84;21044;-75
2022/01/20 02:55:38;;;;;;;17.50;8.13;;;;;;;-12.85;100.00;99997.75;1674856;86;21076;-76
2022/01/20 02:58:06;;;;;;;18.33;8.00;;;;;;;-12.83;100.00;100001.63;1674842;86;21533;-75
2022/01/20 03:00:34;;;;;;;14.87;7.03;;;;;;;-12.83;100.00;99999.03;1652381;86;21564;-75
2022/01/20 03:03:02;;;;;;;18.20;8.10;;;;;;;-12.81;100.00;100004.61;1652210;86;21092;-75
2022/01/20 03:05:33;;;;;;;18.13;8.17;;;;;;;-12.79;100.00;99998.08;1674926;86;21084;-76
2022/01/20 03:08:02;;;;;;;16.60;7.80;;;;;;;-12.74;100.00;100001.92;1648960;84;21021;-74
2022/01/20 03:10:30;;;;;;;18.70;8.03;;;;;;;-12.72;100.00;99992.33;1637326;88;21033;-75
2022/01/20 03:12:57;;;;;;;20.43;8.60;;;;;;;-12.68;100.00;99984.88;1615695;88;21136;-75
2022/01/20 03:15:24;;;;;;;24.77;10.97;;;;;;;-12.67;100.00;99978.34;1637504;88;21045;-75
2022/01/20 03:17:52;;;;;;;28.20;11.93;;;;;;;-12.66;100.00;99970.95;1637573;88;21416;-75
2022/01/20 03:20:19;;;;;;;58.83;22.60;;;;;;;-12.65;100.00;99967.89;1623577;87;21049;-76
2022/01/20 03:22:47;;;;;;;59.17;26.43;;;;;;;-12.62;100.00;99968.70;1651537;86;21140;-76
2022/01/20 03:25:14;;;;;;;63.97;25.87;;;;;;;-12.60;100.00;99967.38;1651837;87;21012;-75
2022/01/20 03:27:43;;;;;;;50.03;22.33;;;;;;;-12.58;100.00;99971.26;1652183;86;21076;-75
2022/01/20 03:30:13;;;;;;;30.27;14.70;;;;;;;-12.55;100.00;99968.58;1653730;86;21046;-75
2022/01/20 03:32:42;;;;;;;27.50;12.60;;;;;;;-12.54;100.00;99965.09;1660048;86;21013;-75
2022/01/20 03:35:11;;;;;;;25.40;11.17;;;;;;;-12.51;100.00;99957.23;1665574;86;20976;-76
2022/01/20 03:37:39;;;;;;;27.20;10.37;;;;;;;-12.49;100.00;99956.30;1689695;84;21018;-75
2022/01/20 03:40:09;;;;;;;31.77;13.80;;;;;;;-12.47;100.00;99960.19;1671383;86;21079;-75
2022/01/20 03:42:44;;;;;;;31.53;14.93;;;;;;;-12.45;100.00;99959.70;1686964;84;21018;-75
2022/01/20 03:45:13;;;;;;;43.60;20.00;;;;;;;-12.44;100.00;99966.20;1666340;86;21040;-76
2022/01/20 03:47:42;;;;;;;34.77;16.90;;;;;;;-12.41;100.00;99965.27;1683745;85;21003;-76
2022/01/20 03:50:59;;;;;;;29.47;15.40;;;;;;;-12.38;100.00;99964.37;1666788;85;21056;-75
2022/01/20 03:52:41;;;;;;;30.60;14.33;;;;;;;-12.36;100.00;99973.01;1684201;85;21053;-75
2022/01/20 03:55:10;;;;;;;32.27;15.87;;;;;;;-12.33;100.00;99979.47;1666133;86;21087;-76
2022/01/20 03:57:45;;;;;;;30.00;12.90;;;;;;;-12.32;100.00;99976.84;1685509;84;21507;-76
2022/01/20 04:00:14;;;;;;;25.67;12.00;;;;;;;-12.33;100.00;99979.47;1611642;89;21024;-75
2022/01/20 04:02:42;;;;;;;25.90;11.70;;;;;;;-12.38;100.00;99973.03;1627478;88;21089;-76
2022/01/20 04:05:27;;;;;;;25.10;12.33;;;;;;;-12.40;100.00;99977.87;1600323;89;21113;-76
2022/01/20 04:07:56;;;;;;;29.60;15.13;;;;;;;-12.42;100.00;99977.45;1607981;88;21154;-75
2022/01/20 04:10:32;;;;;;;28.27;13.00;;;;;;;-12.43;100.00;99974.44;1627738;88;21081;-75
2022/01/20 04:12:59;;;;;;;30.87;14.77;;;;;;;-12.44;100.00;99971.86;1627659;88;21018;-76
2022/01/20 04:15:37;;;;;;;29.77;14.90;;;;;;;-12.45;100.00;99972.28;1579678;89;21123;-76
2022/01/20 04:18:01;;;;;;;28.25;12.70;;;;;;;-12.47;100.00;99966.25;1608491;89;21146;-75
2022/01/20 04:20:31;;;;;;;29.43;14.00;;;;;;;-12.45;100.00;99970.98;1627324;88;21080;-75
2022/01/20 04:22:58;;;;;;;27.30;12.73;;;;;;;-12.43;100.00;99963.14;1600286;90;21146;-75
2022/01/20 04:25:29;;;;;;;26.10;12.73;;;;;;;-12.41;100.00;99966.57;1590279;89;21120;-77
2022/01/20 04:27:56;;;;;;;26.00;12.27;;;;;;;-12.38;100.00;99955.25;1627584;88;21042;-76
2022/01/20 04:30:33;;;;;;;26.37;13.57;;;;;;;-12.36;100.00;99946.95;1602873;88;21098;-71
2022/01/20 04:33:00;;;;;;;33.43;16.07;;;;;;;-12.32;100.00;99951.20;1627291;88;21111;-70
2022/01/20 04:35:28;;;;;;;35.60;17.70;;;;;;;-12.30;100.00;99955.52;1642802;86;21113;-72
2022/01/20 04:37:57;;;;;;;33.33;16.07;;;;;;;-12.27;100.00;99951.98;1709470;82;21079;-70
2022/01/20 04:40:24;;;;;;;26.43;12.93;;;;;;;-12.23;100.00;99952.36;1739289;82;21032;-71
2022/01/20 04:42:52;;;;;;;27.80;13.83;;;;;;;-12.19;100.00;99942.73;1708109;84;21059;-70
2022/01/20 04:45:28;;;;;;;26.23;11.83;;;;;;;-12.17;100.00;99939.19;1708651;84;21078;-71
2022/01/20 04:48:03;;;;;;;37.83;19.40;;;;;;;-12.14;100.00;99938.28;1711927;82;21031;-69
2022/01/20 04:58:40;;;;;;;54.93;26.83;;;;;;;-12.13;100.00;99929.55;1733406;82;21034;-74
2022/01/20 05:01:07;;;;;;;44.00;22.47;;;;;;;-12.11;100.00;99938.20;1709276;83;21085;-73
2022/01/20 05:03:39;;;;;;;;;;;;;;;-12.12;100.00;99945.63;1716060;82;21066;-75
2022/01/20 05:06:23;;;;;;;30.93;15.63;;;;;;;-12.15;100.00;99965.22;1625207;88;20093;-74
2022/01/20 05:08:52;;;;;;;24.90;11.30;;;;;;;-12.18;100.00;99945.30;1599123;90;21574;-73
2022/01/20 05:11:20;;;;;;;24.70;11.67;;;;;;;-12.15;100.00;99963.92;1608007;89;21037;-75
2022/01/20 05:13:47;;;;;;;23.77;10.57;;;;;;;-12.12;100.00;99957.34;1626320;88;21557;-74
2022/01/20 05:16:15;;;;;;;30.23;12.13;;;;;;;-12.14;100.00;99969.11;1626061;88;21074;-75
2022/01/20 05:18:44;;;;;;;44.07;18.23;;;;;;;-12.18;100.00;99987.02;1625232;87;21065;-74
2022/01/20 05:21:11;;;;;;;47.47;22.50;;;;;;;-12.25;100.00;99994.08;1625650;88;21062;-74
2022/01/20 05:23:38;;;;;;;52.80;25.43;;;;;;;-12.28;100.00;99999.80;1646483;87;21076;-69
2022/01/20 05:26:07;;;;;;;55.50;23.70;;;;;;;-12.31;100.00;99992.87;1623941;87;21070;-70
2022/01/20 05:28:34;;;;;;;56.63;24.23;;;;;;;-12.32;100.00;99990.30;1624157;88;21074;-70
2022/01/20 05:31:01;;;;;;;52.03;23.37;;;;;;;-12.33;100.00;99993.81;1615547;88;21603;-71
2022/01/20 05:33:30;;;;;;;48.30;20.07;;;;;;;-12.34;100.00;99995.56;1632784;86;21086;-71
2022/01/20 05:35:57;;;;;;;51.40;21.23;;;;;;;-12.30;100.00;99996.37;1629203;88;21077;-71
2022/01/20 05:38:24;;;;;;;47.13;21.90;;;;;;;-12.29;100.00;99995.46;1628948;88;21078;-71
2022/01/20 05:40:51;;;;;;;54.50;26.93;;;;;;;-12.26;100.00;99994.95;1631536;88;21065;-69
2022/01/20 05:43:19;;;;;;;62.60;34.83;;;;;;;-12.22;100.00;99995.76;1619052;88;21031;-69
2022/01/20 05:45:48;;;;;;;72.60;44.53;;;;;;;-12.17;100.00;100005.66;1678572;85;21041;-70
2022/01/20 05:48:17;;;;;;;51.53;27.73;;;;;;;-12.12;100.00;99997.76;1678320;85;21558;-70
2022/01/20 05:50:57;;;;;;;44.35;24.30;;;;;;;-12.05;100.00;99998.05;1617437;88;21067;-70
2022/01/20 05:53:25;;;;;;;44.50;25.60;;;;;;;-11.98;100.00;99990.52;1616901;88;21060;-70
2022/01/20 05:55:52;;;;;;;38.53;22.00;;;;;;;-11.91;100.00;99979.07;1616654;88;21096;-73
2022/01/20 05:58:20;;;;;;;30.23;16.60;;;;;;;-11.83;100.00;99982.78;1616243;88;21060;-71
2022/01/20 06:00:50;;;;;;;29.33;15.53;;;;;;;-11.73;100.00;99976.94;1616884;88;21072;-70
2022/01/20 06:03:36;;;;;;;32.43;16.40;;;;;;;-11.63;100.00;99971.95;1616965;88;21080;-70
2022/01/20 06:06:06;;;;;;;31.90;16.43;;;;;;;-11.55;100.00;99973.92;1616658;88;21028;-70
2022/01/20 06:08:35;;;;;;;41.40;23.33;;;;;;;-11.44;100.00;99970.22;1630338;88;21072;-69
2022/01/20 06:11:03;;;;;;;46.63;26.67;;;;;;;-11.37;100.00;99963.97;1633256;88;21017;-70
2022/01/20 06:13:30;;;;;;;42.20;24.00;;;;;;;-11.29;100.00;99964.20;1633296;87;21025;-71
2022/01/20 06:15:59;;;;;;;33.10;18.73;;;;;;;-11.21;100.00;99952.27;1633377;88;21025;-70
2022/01/20 06:18:26;;;;;;;31.53;17.13;;;;;;;-11.14;100.00;99949.06;1632034;88;21073;-72
2022/01/20 06:20:55;;;;;;;28.97;15.37;;;;;;;-11.07;100.00;99955.86;1606338;89;21065;-71
2022/01/20 06:23:22;;;;;;;25.07;12.17;;;;;;;-10.98;100.00;99942.56;1605752;89;21045;-68
2022/01/20 06:25:51;;;;;;;27.47;14.10;;;;;;;-10.87;100.00;99940.14;1605376;89;21106;-69
2022/01/20 06:28:19;;;;;;;27.00;13.70;;;;;;;-10.81;100.00;99942.16;1605461;88;21042;-70
2022/01/20 06:30:47;;;;;;;36.13;16.80;;;;;;;-10.74;100.00;99941.55;1614590;87;21621;-71
2022/01/20 06:33:14;;;;;;;27.37;13.30;;;;;;;-10.66;100.00;99940.04;1619042;87;20982;-70
2022/01/20 06:35:43;;;;;;;33.37;15.53;;;;;;;-10.56;100.00;99937.59;1620047;87;21046;-71
2022/01/20 06:38:11;;;;;;;35.10;15.00;;;;;;;-10.50;100.00;99929.58;1621763;87;21074;-70
2022/01/20 06:40:39;;;;;;;32.53;17.17;;;;;;;-10.42;100.00;99928.09;1616764;89;21001;-71
2022/01/20 06:43:06;;;;;;;36.10;17.13;;;;;;;-10.38;100.00;99928.40;1616940;88;21014;-73
2022/01/20 06:45:33;;;;;;;28.10;14.20;;;;;;;-10.32;100.00;99930.86;1617990;89;21133;-74
2022/01/20 06:48:02;;;;;;;33.40;16.13;;;;;;;-10.25;100.00;99918.42;1614806;87;21066;-75
2022/01/20 06:50:30;;;;;;;30.70;15.57;;;;;;;-10.18;100.00;99912.11;1596485;89;21018;-70
2022/01/20 06:52:57;;;;;;;35.10;16.23;;;;;;;-10.06;100.00;99916.14;1634208;87;21062;-73
2022/01/20 06:55:24;;;;;;;36.10;16.50;;;;;;;-9.99;100.00;99901.98;1630466;87;21479;-72
2022/01/20 06:57:51;;;;;;;33.23;15.83;;;;;;;-9.90;100.00;99893.86;1612964;87;21017;-74
2022/01/20 07:00:21;;;;;;;36.30;16.67;;;;;;;-9.82;100.00;99891.03;1634863;87;20994;-73
2022/01/20 07:02:50;;;;;;;28.47;15.43;;;;;;;-9.68;100.00;99878.80;1645684;87;21038;-73
2022/01/20 07:05:20;;;;;;;33.73;15.90;;;;;;;-9.55;100.00;99868.37;1645908;87;21049;-72
2022/01/20 07:07:48;;;;;;;30.87;14.13;;;;;;;-9.42;100.00;99862.28;1623840;87;21045;-73
2022/01/20 07:10:23;;;;;;;29.50;14.47;;;;;;;-9.29;100.00;99860.98;1662911;85;21090;-73
2022/01/20 07:12:51;;;;;;;26.30;12.97;;;;;;;-9.17;100.00;99857.97;1691033;85;21041;-71
2022/01/20 07:15:19;;;;;;;42.93;21.77;;;;;;;-9.03;100.00;99856.63;1692103;85;20994;-71
2022/01/20 07:17:47;;;;;;;36.17;18.57;;;;;;;-8.93;100.00;99852.79;1692085;85;21607;-75
2022/01/20 07:20:15;;;;;;;33.13;17.80;;;;;;;-8.83;100.00;99854.19;1692369;85;21014;-72
2022/01/20 07:22:56;;;;;;;41.80;20.20;;;;;;;-8.72;100.00;99859.52;1668825;85;21587;-75
2022/01/20 07:25:24;;;;;;;66.73;30.27;;;;;;;-8.64;100.00;99846.55;1692634;85;20993;-73
2022/01/20 07:27:56;;;;;;;64.67;31.85;;;;;;;-8.53;100.00;99851.40;1689060;85;21061;-72
2022/01/20 07:30:23;;;;;;;75.97;38.73;;;;;;;-8.41;100.00;99848.30;1669343;85;20998;-71
2022/01/20 07:32:50;;;;;;;55.00;25.37;;;;;;;-8.34;100.00;99849.37;1669086;85;21166;-71
2022/01/20 07:35:19;;;;;;;57.53;29.17;;;;;;;-8.27;100.00;99843.86;1691798;85;21092;-68
2022/01/20 07:37:48;;;;;;;61.27;30.50;;;;;;;-8.23;100.00;99839.36;1668483;85;21049;-73
2022/01/20 07:40:15;;;;;;;66.20;32.50;;;;;;;-8.17;100.00;99833.86;1691466;85;21522;-70
2022/01/20 07:42:42;;;;;;;47.23;21.60;;;;;;;-8.10;100.00;99840.59;1691185;85;21143;-71
2022/01/20 07:45:11;;;;;;;79.33;30.13;;;;;;;-8.05;100.00;99830.77;1631209;87;21721;-73
2022/01/20 07:47:46;;;;;;;113.00;47.03;;;;;;;-7.99;100.00;99828.83;1594145;90;21158;-73
2022/01/20 07:50:13;;;;;;;139.63;53.67;;;;;;;-7.89;100.00;99828.88;1595057;90;21034;-72
2022/01/20 07:52:41;;;;;;;209.27;66.47;;;;;;;-7.79;100.00;99824.98;1594962;90;21086;-71
2022/01/20 07:55:09;;;;;;;105.40;41.00;;;;;;;-7.71;100.00;99828.14;1595167;90;21103;-71
2022/01/20 07:57:36;;;;;;;111.30;39.07;;;;;;;-7.62;100.00;99831.33;1594730;90;21114;-70
2022/01/20 08:00:05;;;;;;;101.43;44.90;;;;;;;-7.54;100.00;99829.23;1595400;90;21046;-71
2022/01/20 08:02:34;;;;;;;79.53;37.80;;;;;;;-7.45;100.00;99832.83;1591545;90;21055;-71
2022/01/20 08:05:02;;;;;;;81.27;34.30;;;;;;;-7.36;100.00;99830.28;1595323;90;21528;-72
2022/01/20 08:07:29;;;;;;;96.67;40.90;;;;;;;-7.26;100.00;99840.34;1613390;88;21104;-71
2022/01/20 08:09:58;;;;;;;71.57;33.47;;;;;;;-7.19;100.00;99836.98;1616788;89;21025;-73
2022/01/20 08:12:28;;;;;;;82.63;32.47;;;;;;;-7.14;100.00;99836.80;1616468;89;21145;-70
2022/01/20 08:14:59;;;;;;;79.90;35.73;;;;;;;-7.13;100.00;99835.89;1612762;89;21041;-70
2022/01/20 08:17:39;;;;;;;64.07;30.03;;;;;;;-7.10;100.00;99830.48;1605012;89;21151;-72
2022/01/20 08:20:09;;;;;;;61.77;28.30;;;;;;;-7.04;100.00;99834.66;1598923;89;21062;-73
2022/01/20 08:22:36;;;;;;;68.40;32.50;;;;;;;-7.05;100.00;99837.72;1596798;89;21096;-73
2022/01/20 08:25:09;;;;;;;65.30;33.23;;;;;;;-7.00;100.00;99830.50;1614713;89;21041;-73
2022/01/20 08:27:39;;;;;;;52.33;25.53;;;;;;;-6.95;100.00;99825.06;1615611;89;21070;-71
2022/01/20 08:30:09;;;;;;;56.20;28.40;;;;;;;-6.90;100.00;99825.25;1631045;87;21069;-70
2022/01/20 08:32:36;;;;;;;77.13;36.93;;;;;;;-6.85;100.00;99815.86;1615759;89;22572;-72
2022/01/20 08:35:23;;;;;;;65.03;33.10;;;;;;;-6.79;100.00;99822.62;1589382;89;21073;-73
2022/01/20 08:37:51;;;;;;;57.60;29.53;;;;;;;-6.72;100.00;99822.28;1533349;93;21133;-72
2022/01/20 08:40:22;;;;;;;42.33;20.77;;;;;;;-6.61;100.00;99823.59;1527592;93;21077;-72
2022/01/20 08:42:49;;;;;;;45.90;23.07;;;;;;;-6.61;100.00;99813.06;1513185;93;21091;-72
2022/01/20 08:45:18;;;;;;;48.90;23.90;;;;;;;-6.64;100.00;99809.25;1546436;91;21109;-71
2022/01/20 08:47:45;;;;;;;64.87;30.43;;;;;;;-6.64;100.00;99814.51;1566080;87;21086;-73
2022/01/20 08:50:12;;;;;;;92.17;43.40;;;;;;;-6.63;100.00;99814.45;1606047;89;21050;-73
2022/01/20 08:52:40;;;;;;;49.00;24.93;;;;;;;-6.56;100.00;99812.41;1600114;88;21055;-70
2022/01/20 08:55:08;;;;;;;47.90;27.30;;;;;;;-6.54;100.00;99814.50;1596366;88;21032;-70
2022/01/20 08:57:39;;;;;;;55.13;29.67;;;;;;;-6.54;100.00;99799.56;1583218;90;21057;-69
2022/01/20 09:00:09;;;;;;;66.90;36.23;;;;;;;-6.47;100.00;99794.89;1566090;90;21122;-71
2022/01/20 09:02:37;;;;;;;45.00;23.93;;;;;;;-6.36;100.00;99795.24;1583696;90;21118;-72
2022/01/20 09:05:07;;;;;;;50.10;27.90;;;;;;;-6.30;100.00;99804.19;1580669;89;21114;-69
2022/01/20 09:07:38;;;;;;;47.23;24.83;;;;;;;-6.25;100.00;99795.22;1589573;89;21149;-70
2022/01/20 09:10:08;;;;;;;47.53;25.43;;;;;;;-6.23;100.00;99783.72;1582133;88;21552;-71
2022/01/20 09:15:28;;;;;;;46.67;23.40;;;;;;;-6.25;100.00;99780.30;1558273;91;21579;-71
2022/01/20 09:18:06;;;;;;;42.15;21.97;;;;;;;-6.28;100.00;99779.13;1603497;88;21030;-70
2022/01/20 09:20:34;;;;;;;41.77;23.47;;;;;;;-6.20;100.00;99771.70;1635653;86;21152;-71
2022/01/20 09:23:02;;;;;;;40.57;21.10;;;;;;;-6.12;100.00;99771.37;1636041;86;21077;-71
2022/01/20 09:25:29;;;;;;;45.47;24.20;;;;;;;-6.06;100.00;99762.32;1652217;86;21024;-70
2022/01/20 09:27:56;;;;;;;43.97;23.90;;;;;;;-6.01;100.00;99753.27;1666833;86;21571;-69
2022/01/20 09:30:25;;;;;;;42.73;23.93;;;;;;;-5.92;100.00;99752.79;1617732;88;21074;-72
2022/01/20 09:33:09;;;;;;;53.23;29.10;;;;;;;-5.83;100.00;99743.59;1635164;87;21684;-72
2022/01/20 09:35:30;;;;;;;46.70;26.87;;;;;;;-5.71;100.00;99731.62;1654551;85;21041;-74
2022/01/20 09:37:59;;;;;;;50.40;29.60;;;;;;;-5.63;100.00;99729.47;1543672;91;21124;-72
2022/01/20 09:40:28;;;;;;;42.73;23.50;;;;;;;-5.50;100.00;99720.48;1563488;91;21107;-73
2022/01/20 09:42:56;;;;;;;45.00;25.03;;;;;;;-5.38;100.00;99714.59;1534087;92;21160;-73
2022/01/20 09:45:24;;;;;;;46.80;25.90;;;;;;;-5.27;100.00;99704.81;1528447;92;21079;-71
2022/01/20 09:47:51;;;;;;;38.97;21.37;;;;;;;-5.13;100.00;99696.64;1561230;92;22507;-70
2022/01/20 09:50:26;;;;;;;38.33;21.70;;;;;;;-5.01;100.00;99680.17;1560211;90;21051;-70
2022/01/20 09:53:27;;;;;;;;;;;;;;;;;;;;;
2022/01/20 09:56:08;;;;;;;34.40;19.33;;;;;;;-4.91;100.00;99660.30;1464812;97;23341;-70
2022/01/20 09:58:36;;;;;;;35.40;20.27;;;;;;;-4.82;100.00;99670.83;1458954;98;21234;-70
2022/01/20 10:01:03;;;;;;;36.00;19.37;;;;;;;-4.72;100.00;99665.44;1502635;94;21115;-70
2022/01/20 10:03:31;;;;;;;35.37;17.43;;;;;;;-4.65;100.00;99640.42;1464559;98;21101;-68
2022/01/20 10:06:12;;;;;;;27.93;14.20;;;;;;;-4.55;100.00;99635.95;1486556;95;21663;-70
2022/01/20 10:08:41;;;;;;;41.20;25.68;;;;;;;-4.46;100.00;99634.11;1455489;98;21636;-69
2022/01/20 10:11:10;;;;;;;29.77;17.10;;;;;;;-4.40;100.00;99632.47;1436851;98;21636;-71
2022/01/20 10:14:05;;;;;;;29.50;15.27;;;;;;;-4.30;100.00;99624.86;1431030;100;21107;-70
2022/01/20 10:16:38;;;;;;;25.43;13.90;;;;;;;-4.21;100.00;99614.65;1464722;96;21103;-71
2022/01/20 10:19:10;;;;;;;28.83;14.43;;;;;;;-4.12;100.00;99607.15;1466721;98;21697;-75
2022/01/20 10:21:40;;;;;;;24.20;12.00;;;;;;;-4.07;100.00;99605.06;1467069;98;21133;-72
2022/01/20 10:24:16;;;;;;;27.80;14.03;;;;;;;-3.99;100.00;99611.23;1458858;97;21116;-72
2022/01/20 10:26:50;;;;;;;33.38;14.18;;;;;;;-3.97;100.00;99608.03;1429724;100;21179;-75
2022/01/20 10:29:17;;;;;;;35.77;15.33;;;;;;;-3.93;100.00;99600.30;1417651;101;21270;-73
2022/01/20 10:31:51;;;;;;;36.10;19.53;;;;;;;-3.94;100.00;99600.78;1396233;100;21183;-71
2022/01/20 10:34:31;;;;;;;27.85;14.43;;;;;;;-3.90;100.00;99602.30;1454408;96;21594;-71
2022/01/20 10:39:46;;;;;;;24.80;12.13;;;;;;;-3.75;100.00;99582.06;1400186;100;21224;-73
2022/01/20 10:42:22;;;;;;;23.10;11.40;;;;;;;-3.68;100.00;99577.27;1390998;102;21192;-77
2022/01/20 10:44:56;;;;;;;27.53;14.63;;;;;;;-3.72;100.00;99573.96;1392290;102;21230;-74
2022/01/20 10:47:27;;;;;;;30.97;16.70;;;;;;;-3.67;100.00;99571.02;1383950;102;21178;-75
2022/01/20 10:49:59;;;;;;;32.20;16.03;;;;;;;-3.57;100.00;99553.67;1382975;103;21683;-74
2022/01/20 10:52:31;;;;;;;29.10;15.17;;;;;;;-3.48;100.00;99545.17;1375653;103;21180;-74
2022/01/20 10:55:01;;;;;;;;;;;;;;;-3.44;100.00;99536.10;1384400;102;21575;-74
2022/01/20 10:57:32;;;;;;;24.50;13.00;;;;;;;-3.35;100.00;99531.20;1367557;104;20204;-73
2022/01/20 11:00:07;;;;;;;22.80;12.07;;;;;;;-3.29;100.00;99531.67;1343463;106;21253;-71
2022/01/20 11:02:36;;;;;;;22.40;11.67;;;;;;;-3.17;100.00;99526.11;1325435;107;21647;-72
2022/01/20 11:05:03;;;;;;;26.70;12.70;;;;;;;-3.13;100.00;99509.56;1312223;108;21253;-71
2022/01/20 11:07:32;;;;;;;25.67;12.70;;;;;;;-3.13;100.00;99511.73;1353419;103;21143;-73
2022/01/20 11:10:03;;;;;;;25.13;13.90;;;;;;;-3.04;100.00;99507.66;1399426;103;21180;-74
2022/01/20 11:12:46;;;;;;;37.10;16.87;;;;;;;-2.93;100.00;99504.32;1396040;103;21809;-74
2022/01/20 11:15:20;;;;;;;33.40;15.03;;;;;;;-2.78;100.00;99487.91;1390836;102;21088;-74
2022/01/20 11:17:55;;;;;;;37.73;17.67;;;;;;;-2.67;100.00;99480.98;1385579;104;21080;-72
2022/01/20 11:20:27;;;;;;;35.00;16.93;;;;;;;-2.52;100.00;99478.27;1346556;107;21172;-76
2022/01/20 11:23:04;;;;;;;30.40;15.77;;;;;;;-2.41;100.00;99475.75;1347024;107;21164;-75
2022/01/20 11:26:35;;;;;;;25.03;12.83;;;;;;;-2.29;100.00;99466.14;1306959;110;21762;-75
2022/01/20 11:30:24;;;;;;;23.90;10.50;;;;;;;-2.03;100.00;99464.86;1315502;108;21628;-72
2022/01/20 11:33:07;;;;;;;28.77;15.53;;;;;;;-1.93;100.00;99475.18;1316472;107;21197;-73
2022/01/20 11:35:42;;;;;;;23.60;11.90;;;;;;;-1.87;100.00;99468.63;1327908;108;21266;-75
2022/01/20 11:38:13;;;;;;;23.77;11.13;;;;;;;-1.87;100.00;99469.95;1337033;106;21203;-75
2022/01/20 11:40:58;;;;;;;22.27;10.63;;;;;;;-1.94;100.00;99476.15;1376594;103;21242;-76
2022/01/20 11:43:41;;;;;;;21.80;10.73;;;;;;;-1.94;100.00;99486.27;1392678;101;21725;-74
2022/01/20 11:46:13;;;;;;;19.93;9.37;;;;;;;-1.98;100.00;99487.44;1411867;99;21187;-74
2022/01/20 11:49:01;;;;;;;23.60;10.60;;;;;;;-1.97;100.00;99495.73;1396548;102;21134;-73
2022/01/20 11:51:56;;;;;;;72.67;55.97;;;;;;;-2.00;100.00;99493.32;1429253;100;21116;-72
2022/01/20 11:54:41;;;;;;;26.82;15.50;;;;;;;-2.00;100.00;99493.32;1429280;100;21194;-73
2022/01/20 11:57:22;;;;;;;21.63;11.43;;;;;;;-1.91;100.00;99486.06;1429483;100;21184;-72
2022/01/20 11:59:57;;;;;;;23.23;11.60;;;;;;;-1.72;100.00;99480.80;1429773;99;21152;-74
2022/01/20 12:02:34;;;;;;;21.73;10.27;;;;;;;-1.59;100.00;99482.14;1408271;102;21184;-74
2022/01/20 12:05:27;;;;;;;21.63;11.17;;;;;;;-1.50;100.00;99481.49;1405944;102;21141;-73
2022/01/20 12:08:14;;;;;;;21.80;11.07;;;;;;;-1.51;100.00;99488.23;1394846;103;21162;-74
2022/01/20 12:10:43;;;;;;;28.23;14.47;;;;;;;-1.47;100.00;99489.23;1394795;103;21214;-73
2022/01/20 12:13:13;;;;;;;27.47;13.80;;;;;;;-1.12;100.00;99489.00;1414164;100;21129;-71
2022/01/20 12:15:52;;;;;;;27.30;14.60;;;;;;;-1.03;100.00;99487.84;1415882;100;21093;-74